Aérodrome :
LOGIN :

S'inscrire | Disclaimer

   EN    FR    IT 

 










Légende :    VFR   VFR Marginal   IFR   IFR Intensif   IFR Très Intensif
Visi : 
Plafond : 
>= 8 km
>= 3000ft
5 à 8 km
1000 à 3000 ft
1500m à 5 km
500 à 1000 ft
800 à 1500m
200 à 500 ft
< 800m
< 200 ft
Symboles :   Orages  Brouillard  Fortes neiges  Fortes précipitations  Vent > 20 kt
SIGMETs :   Divers  Orages  Givrage  Turbulence  Onde Orograph.  Cendres Volcan.







- Altitude de l'aérodrome : 154 ft
- Code IATA : SZZ


EPSC - Szczecin Goleniow

DERNIER METAR :
  • 210430Z 29002KT 8000 FEW011 SCT018 BKN021 10/10 Q1019

METARs EXPIRÉS :
  • 210400Z VRB01KT 8000 SCT011 BKN017 10/10 Q1019
  • 210330Z 14003KT 6000 SCT016 BKN018 10/09 Q1019
  • 210300Z VRB02KT 8000 FEW026 10/09 Q1019
  • 210230Z 22003KT 9999 FEW021 BKN025 11/10 Q1019
  • 210200Z VRB01KT 9999 FEW017 BKN021 11/10 Q1020

TAF TAF EPSC
Valide du 21 à 00h jusqu'au 22 à 00h UTC


202330Z 2100/2124 VRB03KT 9999 SCT030
PROB40
TEMPO 2100/2107 3000 BR BKN004
BECMG 2107/2109 33010KT
PROB40
TEMPO 2111/2116 BKN025CB
Pas de NOTAMs connus pour ce terrain.
1 SIGMET publié pour la FIR Warszawa (EPWW) :
 
Turbulence forte
EPWW SIGMET 1 VALID 210130/210530 EPWA
EPWW WARSAW FIR SEV TURB FCST SE OF LINE N5410 E02110 - N5220 E01910 - N4950 E01820 FL250/380 STNR NC=



MET'MAP, la Météo Aéronautique d'un coup d'oeil ! - Copyright ORBIFLY Décembre 2007 - Disclaimer

ORBIFLY MET'MAP TEAM :

Programmation & Développement : Alexandra Zaïnal
Conception & Développement : Baudouin d'Aumeries
Co-Programmation & Développement : Marc-Olivier Méhu
Soutien technique & logistique : Manuel Goepfert

Contact : metmap@orbifly.com




SOURCES & CREDITS :

   NOAA